aviador You're here:

KAUS Decoded Metar

AUSTIN in TX, USA
Report Time2017-05-29 03:53:00
UTC Time2017-05-29 03:59:08
Flight Rules vfr VFR
WindVRB at 03 kt
Visibility9999 m
Phenomena:Light Rain
Clouds:Few 050 Hf
Broken 110 Hf
Expected CloudBase > 400 ft AGL from Temp-Dew spread
Ceiling11,000 ft
Temp24°C (ISA +10)
Dew Point23°C (94% RH)
QNH1014 hPa
Density Alt2,054 ft
Elevation545 ft
Report Wrong Elevation
Raw Report
METAR KAUS 290353Z VRB03KT 10SM -RA FEW050 BKN110 24/23 A2994 RMK
AO2 PK WND 04027/0314 WSHFT 0326 TSE31 PRESRR SLP129 P0003
T02390233 $=

Extra information for KAUS:More info

Metar Taf Metar & Taf Last 4 Metars F.Rules Stats Wind Profile Meteogram Temp Stats Airport Information Weather charts Add Link Nearby VenuesMetar ALERT Operation Metar Decoded Social comments

AIRNAV info for KAUS